createdAt,value
2022-11-19T00:00:09.375Z,14.71
2022-11-19T00:02:35.769Z,14.65
2022-11-19T00:05:02.146Z,14.58
2022-11-19T00:07:28.503Z,14.55
2022-11-19T00:09:54.887Z,14.58
2022-11-19T00:12:21.213Z,14.58
2022-11-19T00:14:47.559Z,14.60
2022-11-19T00:17:13.878Z,14.56
2022-11-19T00:19:40.256Z,14.58
2022-11-19T00:22:06.573Z,14.57
2022-11-19T00:24:32.961Z,14.55
2022-11-19T00:26:59.325Z,14.49
2022-11-19T00:29:25.662Z,14.47
2022-11-19T00:31:52.065Z,14.51
2022-11-19T00:34:18.436Z,14.45
2022-11-19T00:36:44.791Z,14.36
2022-11-19T00:39:11.163Z,14.27
2022-11-19T00:41:37.473Z,14.32
2022-11-19T00:44:03.824Z,14.32
2022-11-19T00:46:30.146Z,14.34
2022-11-19T00:48:56.534Z,14.29
2022-11-19T00:51:22.864Z,14.30
2022-11-19T00:53:49.213Z,14.33
2022-11-19T00:56:15.590Z,14.35
2022-11-19T00:58:41.979Z,14.28
2022-11-19T01:01:08.412Z,14.34
2022-11-19T01:03:34.724Z,14.24
2022-11-19T01:06:01.080Z,14.20
2022-11-19T01:08:27.422Z,14.20
2022-11-19T01:10:53.783Z,14.14
2022-11-19T01:13:20.195Z,14.07
2022-11-19T01:15:46.515Z,14.12
2022-11-19T01:18:12.901Z,14.11
2022-11-19T01:20:39.278Z,14.20
2022-11-19T01:23:05.590Z,14.18
2022-11-19T01:25:31.946Z,14.17
2022-11-19T01:27:58.288Z,14.12
2022-11-19T01:30:24.655Z,14.08
2022-11-19T01:32:51.035Z,14.08
2022-11-19T01:35:17.390Z,14.01
2022-11-19T01:37:43.808Z,14.00
2022-11-19T01:40:10.128Z,13.95
2022-11-19T01:42:36.517Z,13.99
2022-11-19T01:45:02.878Z,14.08
2022-11-19T01:47:29.225Z,14.02
2022-11-19T01:49:55.591Z,14.00
2022-11-19T01:52:21.941Z,13.94
2022-11-19T01:54:48.327Z,13.76
2022-11-19T01:57:14.707Z,13.78
2022-11-19T01:59:41.099Z,13.72
2022-11-19T02:02:07.472Z,13.68
2022-11-19T02:04:33.831Z,13.57
2022-11-19T02:07:00.297Z,13.52
2022-11-19T02:09:26.598Z,13.58
2022-11-19T02:11:52.951Z,13.49
2022-11-19T02:14:19.278Z,13.47
2022-11-19T02:16:45.650Z,13.39
2022-11-19T02:19:11.962Z,13.42
2022-11-19T02:21:38.349Z,13.48
2022-11-19T02:24:04.677Z,13.52
2022-11-19T02:26:31.060Z,13.46
2022-11-19T02:28:57.378Z,13.44
2022-11-19T02:31:23.770Z,13.43
2022-11-19T02:33:50.124Z,13.36
2022-11-19T02:36:16.504Z,13.40
2022-11-19T02:38:42.831Z,13.47
2022-11-19T02:41:09.226Z,13.47
2022-11-19T02:43:35.540Z,13.47
2022-11-19T02:46:01.956Z,13.39
2022-11-19T02:48:28.242Z,13.37
2022-11-19T02:50:54.588Z,13.28
2022-11-19T02:53:20.982Z,13.18
2022-11-19T02:55:47.322Z,13.14
2022-11-19T02:58:13.685Z,13.03
2022-11-19T03:00:40.069Z,12.97
2022-11-19T03:03:06.386Z,13.07
2022-11-19T03:05:32.775Z,13.16
2022-11-19T03:07:59.160Z,13.13
2022-11-19T03:10:25.500Z,13.14
2022-11-19T03:12:51.856Z,13.05
2022-11-19T03:15:18.228Z,13.04
2022-11-19T03:17:44.599Z,13.09
2022-11-19T03:20:10.941Z,13.06
2022-11-19T03:22:37.334Z,13.16
2022-11-19T03:25:03.730Z,13.15
2022-11-19T03:27:30.081Z,13.16
2022-11-19T03:29:56.500Z,13.07
2022-11-19T03:32:22.849Z,12.99
2022-11-19T03:34:49.228Z,13.00
2022-11-19T03:37:15.613Z,13.10
2022-11-19T03:39:41.993Z,13.05
2022-11-19T03:42:08.355Z,12.93
2022-11-19T03:44:34.739Z,12.92
2022-11-19T03:47:01.145Z,12.99
2022-11-19T03:49:27.488Z,13.05
2022-11-19T03:51:53.852Z,13.06
2022-11-19T03:54:20.258Z,13.14
2022-11-19T03:56:46.577Z,13.12
2022-11-19T03:59:12.971Z,13.00
2022-11-19T04:01:39.389Z,12.94
2022-11-19T04:04:05.730Z,12.88
2022-11-19T04:06:32.085Z,12.70
2022-11-19T04:08:58.445Z,12.72
2022-11-19T04:13:50.089Z,12.68
2022-11-19T04:16:16.452Z,12.65
2022-11-19T04:18:42.836Z,12.64
2022-11-19T04:21:09.294Z,12.61
2022-11-19T04:23:35.654Z,12.66
2022-11-19T04:26:01.970Z,12.77
2022-11-19T04:28:28.345Z,12.76
2022-11-19T04:30:54.710Z,12.77
2022-11-19T04:33:21.054Z,12.69
2022-11-19T04:35:47.397Z,12.59
2022-11-19T04:38:13.743Z,12.57
2022-11-19T04:40:40.062Z,12.60
2022-11-19T04:43:06.452Z,12.55
2022-11-19T04:45:32.773Z,12.58
2022-11-19T04:47:59.155Z,12.74
2022-11-19T04:50:25.479Z,12.69
2022-11-19T04:52:51.934Z,12.64
2022-11-19T04:55:18.214Z,12.52
2022-11-19T04:57:44.560Z,12.43
2022-11-19T05:00:10.925Z,12.52
2022-11-19T05:02:37.316Z,12.48
2022-11-19T05:05:03.749Z,12.45
2022-11-19T05:07:30.221Z,12.43
2022-11-19T05:09:56.443Z,12.47
2022-11-19T05:12:22.807Z,12.33
2022-11-19T05:14:49.137Z,12.27
2022-11-19T05:17:15.530Z,12.25
2022-11-19T05:19:41.891Z,12.35
2022-11-19T05:22:08.280Z,12.34
2022-11-19T05:24:34.640Z,12.33
2022-11-19T05:27:01.011Z,12.37
2022-11-19T05:29:27.332Z,12.38
2022-11-19T05:31:53.681Z,12.23
2022-11-19T05:34:20.051Z,12.08
2022-11-19T05:36:46.427Z,12.14
2022-11-19T05:39:16.163Z,12.27
2022-11-19T05:41:39.165Z,12.45
2022-11-19T05:44:05.520Z,12.57
2022-11-19T05:46:31.904Z,12.85
2022-11-19T05:48:58.237Z,12.96
2022-11-19T05:51:24.623Z,12.92
2022-11-19T05:53:50.990Z,13.01
2022-11-19T05:56:17.308Z,13.07
2022-11-19T05:58:43.634Z,13.09
2022-11-19T06:01:09.985Z,13.14
2022-11-19T06:03:36.344Z,13.15
2022-11-19T06:06:02.732Z,13.13
2022-11-19T06:08:29.081Z,13.22
2022-11-19T06:10:55.463Z,13.27
2022-11-19T06:13:21.795Z,13.30
2022-11-19T06:15:48.144Z,13.32
2022-11-19T06:18:14.510Z,13.39
2022-11-19T06:20:40.887Z,13.51
2022-11-19T06:23:07.213Z,13.69
2022-11-19T06:25:33.634Z,13.57
2022-11-19T06:27:59.954Z,13.49
2022-11-19T06:30:26.305Z,13.53
2022-11-19T06:32:52.634Z,13.54
2022-11-19T06:35:19.124Z,13.57
2022-11-19T06:37:45.436Z,13.74
2022-11-19T06:40:11.825Z,13.92
2022-11-19T06:42:38.212Z,14.03
2022-11-19T06:45:04.532Z,14.12
2022-11-19T06:47:30.908Z,14.23
2022-11-19T06:49:57.277Z,14.07
2022-11-19T06:52:23.601Z,13.87
2022-11-19T06:54:50.023Z,13.73
2022-11-19T06:57:16.343Z,13.68
2022-11-19T06:59:42.705Z,13.73
2022-11-19T07:02:09.128Z,13.87
2022-11-19T07:04:35.424Z,14.17
2022-11-19T07:07:01.826Z,14.36
2022-11-19T07:09:28.194Z,14.46
2022-11-19T07:11:54.505Z,14.47
2022-11-19T07:14:21.024Z,14.58
2022-11-19T07:16:47.311Z,14.91
2022-11-19T07:19:13.731Z,15.46
2022-11-19T07:21:40.061Z,16.19
2022-11-19T07:24:06.478Z,16.66
2022-11-19T07:26:32.829Z,16.97
2022-11-19T07:29:03.281Z,16.88
2022-11-19T07:31:25.546Z,17.00
2022-11-19T07:33:51.894Z,17.54
2022-11-19T07:36:18.789Z,17.30
2022-11-19T07:38:44.611Z,16.96
2022-11-19T07:41:10.938Z,17.42
2022-11-19T07:43:37.290Z,17.20
2022-11-19T07:46:03.646Z,17.15
2022-11-19T07:48:30.028Z,17.18
2022-11-19T07:50:56.743Z,17.20
2022-11-19T07:53:22.778Z,17.85
2022-11-19T07:55:49.091Z,18.37
2022-11-19T07:58:15.480Z,18.90
2022-11-19T08:00:41.793Z,19.28
2022-11-19T08:03:08.138Z,19.50
2022-11-19T08:05:34.467Z,18.98
2022-11-19T08:08:00.783Z,18.62
2022-11-19T08:10:31.538Z,18.39
2022-11-19T08:12:53.526Z,18.08
2022-11-19T08:15:19.906Z,17.94
2022-11-19T08:17:46.261Z,18.27
2022-11-19T08:20:12.678Z,18.35
2022-11-19T08:22:38.989Z,17.97
2022-11-19T08:25:05.337Z,17.98
2022-11-19T08:27:31.750Z,17.95
2022-11-19T08:29:58.131Z,17.73
2022-11-19T08:32:24.447Z,18.56
2022-11-19T08:34:50.834Z,19.08
2022-11-19T08:37:17.205Z,19.28
2022-11-19T08:39:43.626Z,19.15
2022-11-19T08:42:09.967Z,18.80
2022-11-19T08:44:36.349Z,18.55
2022-11-19T08:47:02.720Z,18.53
2022-11-19T08:49:29.060Z,18.49
2022-11-19T08:51:55.435Z,18.70
2022-11-19T08:54:22.292Z,18.64
2022-11-19T08:56:48.476Z,18.85
2022-11-19T08:59:14.853Z,18.92
2022-11-19T09:01:41.210Z,18.76
2022-11-19T09:04:07.584Z,18.48
2022-11-19T09:06:33.896Z,18.23
2022-11-19T09:09:00.245Z,18.24
2022-11-19T09:11:26.606Z,19.45
2022-11-19T09:13:52.958Z,20.44
2022-11-19T09:16:19.319Z,20.94
2022-11-19T09:18:45.693Z,20.88
2022-11-19T09:21:12.031Z,21.42
2022-11-19T09:23:38.411Z,20.99
2022-11-19T09:26:04.722Z,20.94
2022-11-19T09:28:31.081Z,21.28
2022-11-19T09:30:57.398Z,22.04
2022-11-19T09:33:23.750Z,22.43
2022-11-19T09:35:50.102Z,22.71
2022-11-19T09:38:16.482Z,22.45
2022-11-19T09:40:42.799Z,22.74
2022-11-19T09:43:13.938Z,23.36
2022-11-19T09:45:35.540Z,23.26
2022-11-19T09:48:01.876Z,23.42
2022-11-19T09:50:28.235Z,23.12
2022-11-19T09:52:54.563Z,23.24
2022-11-19T09:55:20.928Z,23.00
2022-11-19T09:57:47.283Z,22.81
2022-11-19T10:00:13.615Z,22.90
2022-11-19T10:02:40.030Z,22.89
2022-11-19T10:05:06.383Z,23.00
2022-11-19T10:07:32.830Z,23.64
2022-11-19T10:09:59.051Z,23.73
2022-11-19T10:12:25.427Z,23.97
2022-11-19T10:14:51.763Z,23.87
2022-11-19T10:17:18.121Z,24.04
2022-11-19T10:19:44.501Z,24.17
2022-11-19T10:22:10.844Z,24.70
2022-11-19T10:24:37.265Z,24.40
2022-11-19T10:27:08.544Z,23.95
2022-11-19T10:29:29.972Z,23.75
2022-11-19T10:31:56.316Z,22.95
2022-11-19T10:34:22.711Z,23.59
2022-11-19T10:36:49.084Z,23.37
2022-11-19T10:39:15.446Z,23.46
2022-11-19T10:41:41.821Z,23.61
2022-11-19T10:44:08.172Z,23.33
2022-11-19T10:46:34.526Z,23.60
2022-11-19T10:49:00.848Z,23.69
2022-11-19T10:51:27.233Z,23.90
2022-11-19T10:53:53.621Z,24.37
2022-11-19T10:56:19.953Z,24.27
2022-11-19T10:58:46.271Z,23.61
2022-11-19T11:01:12.652Z,23.30
2022-11-19T11:03:38.944Z,23.08
2022-11-19T11:06:05.353Z,22.92
2022-11-19T11:08:31.641Z,22.87
2022-11-19T11:10:58.023Z,22.76
2022-11-19T11:13:24.393Z,22.86
2022-11-19T11:15:50.803Z,23.40
2022-11-19T11:18:17.114Z,24.35
2022-11-19T11:20:43.494Z,24.68
2022-11-19T11:23:09.808Z,25.12
2022-11-19T11:25:36.161Z,24.71
2022-11-19T11:28:02.488Z,24.74
2022-11-19T11:30:28.877Z,24.60
2022-11-19T11:32:55.202Z,24.22
2022-11-19T11:35:21.542Z,24.34
2022-11-19T11:37:47.903Z,24.07
2022-11-19T11:40:14.354Z,23.93
2022-11-19T11:42:40.597Z,24.54
2022-11-19T11:45:06.938Z,24.58
2022-11-19T11:47:33.304Z,24.19
2022-11-19T11:49:59.700Z,23.81
2022-11-19T11:52:26.049Z,23.82
2022-11-19T11:54:52.390Z,23.98
2022-11-19T11:57:18.802Z,23.71
2022-11-19T11:59:45.208Z,23.25
2022-11-19T12:02:11.628Z,23.48
2022-11-19T12:04:37.984Z,23.36
2022-11-19T12:07:04.401Z,23.19
2022-11-19T12:09:30.771Z,23.09
2022-11-19T12:11:57.113Z,22.86
2022-11-19T12:14:23.447Z,22.46
2022-11-19T12:16:49.805Z,22.40
2022-11-19T12:19:16.202Z,22.45
2022-11-19T12:21:42.564Z,22.58
2022-11-19T12:24:08.905Z,22.58
2022-11-19T12:26:35.266Z,22.59
2022-11-19T12:29:01.633Z,22.68
2022-11-19T12:31:30.060Z,22.60
2022-11-19T12:33:54.370Z,22.48
2022-11-19T12:36:20.686Z,22.41
2022-11-19T12:38:47.045Z,22.47
2022-11-19T12:41:13.386Z,22.42
2022-11-19T12:43:39.753Z,22.35
2022-11-19T12:46:06.177Z,22.33
2022-11-19T12:48:32.487Z,22.28
2022-11-19T12:50:58.824Z,22.02
2022-11-19T12:53:25.196Z,22.07
2022-11-19T12:55:51.510Z,22.16
2022-11-19T12:58:17.859Z,21.84
2022-11-19T13:00:44.190Z,21.68
2022-11-19T13:03:10.752Z,21.65
2022-11-19T13:05:37.097Z,21.70
2022-11-19T13:08:03.465Z,21.64
2022-11-19T13:10:29.852Z,21.54
2022-11-19T13:12:56.220Z,21.48
2022-11-19T13:15:22.574Z,21.34
2022-11-19T13:17:48.939Z,21.29
2022-11-19T13:20:15.276Z,21.32
2022-11-19T13:22:41.633Z,21.37
2022-11-19T13:25:07.957Z,21.33
2022-11-19T13:27:34.328Z,21.34
2022-11-19T13:30:00.688Z,21.36
2022-11-19T13:32:27.063Z,21.26
2022-11-19T13:34:53.454Z,21.15
2022-11-19T13:37:19.831Z,21.09
2022-11-19T13:39:46.235Z,21.16
2022-11-19T13:42:12.530Z,21.08
2022-11-19T13:44:38.887Z,21.06
2022-11-19T13:47:05.304Z,21.09
2022-11-19T13:49:31.670Z,21.13
2022-11-19T13:51:58.047Z,20.96
2022-11-19T13:54:24.407Z,20.87
2022-11-19T13:56:50.749Z,20.86
2022-11-19T13:59:17.253Z,20.87
2022-11-19T14:01:43.546Z,20.91
2022-11-19T14:04:09.816Z,20.82
2022-11-19T14:06:36.193Z,20.82
2022-11-19T14:09:02.549Z,20.72
2022-11-19T14:11:28.921Z,20.68
2022-11-19T14:13:55.295Z,20.68
2022-11-19T14:16:21.647Z,20.73
2022-11-19T14:18:53.068Z,20.75
2022-11-19T14:21:14.358Z,20.69
2022-11-19T14:23:40.719Z,20.64
2022-11-19T14:26:07.072Z,20.59
2022-11-19T14:28:33.396Z,20.56
2022-11-19T14:30:59.764Z,20.57
2022-11-19T14:33:26.086Z,20.52
2022-11-19T14:35:52.492Z,20.48
2022-11-19T14:38:18.810Z,20.35
2022-11-19T14:40:45.181Z,20.36
2022-11-19T14:43:11.535Z,20.35
2022-11-19T14:45:37.907Z,20.38
2022-11-19T14:48:04.301Z,20.36
2022-11-19T14:50:30.644Z,20.22
2022-11-19T14:52:56.998Z,20.16
2022-11-19T14:55:23.370Z,20.10
2022-11-19T14:57:49.697Z,20.10
2022-11-19T15:00:16.073Z,20.02
2022-11-19T15:02:42.389Z,20.04
2022-11-19T15:05:08.730Z,20.12
2022-11-19T15:07:35.195Z,20.08
2022-11-19T15:10:01.532Z,20.11
2022-11-19T15:12:27.802Z,20.06
2022-11-19T15:14:54.169Z,20.03
2022-11-19T15:17:20.490Z,20.10
2022-11-19T15:19:46.859Z,20.11
2022-11-19T15:22:13.216Z,19.93
2022-11-19T15:24:39.591Z,19.91
2022-11-19T15:27:05.955Z,19.83
2022-11-19T15:29:32.317Z,19.89
2022-11-19T15:31:58.659Z,19.88
2022-11-19T15:34:25.019Z,19.79
2022-11-19T15:36:51.406Z,19.68
2022-11-19T15:39:18.362Z,19.58
2022-11-19T15:41:44.159Z,19.52
2022-11-19T15:44:10.566Z,19.50
2022-11-19T15:46:36.876Z,19.51
2022-11-19T15:49:03.243Z,19.53
2022-11-19T15:51:29.608Z,19.41
2022-11-19T15:53:55.943Z,19.31
2022-11-19T15:56:22.267Z,19.52
2022-11-19T15:58:48.607Z,19.47
2022-11-19T16:01:15.020Z,19.51
2022-11-19T16:03:41.354Z,19.51
2022-11-19T16:06:07.698Z,19.37
2022-11-19T16:08:34.058Z,19.36
2022-11-19T16:11:00.374Z,19.40
2022-11-19T16:13:26.779Z,19.48
2022-11-19T16:15:53.096Z,19.39
2022-11-19T16:18:19.471Z,19.24
2022-11-19T16:20:45.847Z,19.05
2022-11-19T16:23:12.216Z,19.01
2022-11-19T16:25:38.551Z,19.06
2022-11-19T16:28:04.902Z,19.06
2022-11-19T16:30:31.272Z,18.98
2022-11-19T16:32:57.603Z,18.95
2022-11-19T16:35:23.926Z,18.86
2022-11-19T16:37:50.376Z,18.77
2022-11-19T16:40:16.655Z,18.75
2022-11-19T16:42:43.038Z,18.72
2022-11-19T16:45:09.398Z,18.70
2022-11-19T16:47:35.742Z,18.73
2022-11-19T16:50:02.129Z,18.75
2022-11-19T16:52:28.483Z,18.71
2022-11-19T16:54:54.823Z,18.75
2022-11-19T16:57:21.232Z,18.78
2022-11-19T16:59:47.557Z,18.73
2022-11-19T17:02:13.943Z,18.82
2022-11-19T17:04:40.340Z,18.72
2022-11-19T17:07:06.743Z,18.64
2022-11-19T17:09:33.064Z,18.59
2022-11-19T17:11:59.431Z,18.57
2022-11-19T17:14:25.770Z,18.64
2022-11-19T17:16:52.149Z,18.69
2022-11-19T17:19:18.502Z,18.77
2022-11-19T17:21:44.863Z,18.84
2022-11-19T17:24:11.201Z,18.94
2022-11-19T17:26:37.550Z,18.91
2022-11-19T17:29:03.893Z,18.93
2022-11-19T17:31:30.237Z,19.07
2022-11-19T17:33:56.577Z,19.12
2022-11-19T17:36:22.952Z,19.26
2022-11-19T17:38:49.319Z,19.26
2022-11-19T17:41:15.722Z,19.09
2022-11-19T17:43:42.050Z,19.03
2022-11-19T17:46:08.400Z,18.99
2022-11-19T17:48:34.739Z,18.82
2022-11-19T17:51:01.091Z,18.77
2022-11-19T17:53:27.414Z,18.91
2022-11-19T17:55:53.779Z,18.91
2022-11-19T17:58:20.124Z,18.88
2022-11-19T18:00:46.486Z,18.85
2022-11-19T18:03:12.803Z,18.81
2022-11-19T18:05:39.219Z,18.61
2022-11-19T18:08:05.553Z,18.62
2022-11-19T18:10:31.950Z,18.56
2022-11-19T18:12:58.270Z,18.47
2022-11-19T18:15:24.636Z,18.48
2022-11-19T18:17:50.987Z,18.49
2022-11-19T18:20:17.324Z,18.35
2022-11-19T18:22:43.671Z,18.30
2022-11-19T18:25:10.039Z,18.26
2022-11-19T18:27:36.384Z,18.24
2022-11-19T18:30:02.771Z,18.24
2022-11-19T18:32:29.132Z,18.24
2022-11-19T18:34:59.212Z,18.15
2022-11-19T18:37:22.891Z,18.13
2022-11-19T18:39:49.223Z,18.15
2022-11-19T18:42:15.595Z,18.08
2022-11-19T18:44:41.933Z,18.04
2022-11-19T18:47:08.314Z,17.93
2022-11-19T18:49:34.703Z,17.90
2022-11-19T18:52:01.058Z,17.94
2022-11-19T18:54:27.418Z,17.91
2022-11-19T18:56:53.769Z,17.74
2022-11-19T18:59:20.263Z,17.84
2022-11-19T19:01:46.477Z,17.98
2022-11-19T19:04:14.456Z,17.94
2022-11-19T19:06:39.171Z,17.81
2022-11-19T19:09:05.547Z,17.84
2022-11-19T19:11:31.930Z,17.86
2022-11-19T19:13:58.257Z,17.84
2022-11-19T19:16:24.638Z,17.80
2022-11-19T19:18:50.993Z,17.86
2022-11-19T19:21:17.324Z,17.89
2022-11-19T19:23:43.708Z,17.94
2022-11-19T19:26:10.048Z,17.79
2022-11-19T19:28:36.404Z,17.75
2022-11-19T19:31:02.796Z,17.70
2022-11-19T19:33:29.139Z,17.70
2022-11-19T19:35:55.521Z,17.83
2022-11-19T19:38:21.875Z,17.74
2022-11-19T19:40:48.250Z,17.91
2022-11-19T19:43:14.566Z,17.89
2022-11-19T19:45:40.942Z,17.86
2022-11-19T19:48:07.317Z,17.72
2022-11-19T19:50:33.658Z,17.82
2022-11-19T19:52:59.980Z,17.83
2022-11-19T19:55:26.344Z,17.65
2022-11-19T19:57:52.703Z,17.67
2022-11-19T20:00:19.038Z,17.70
2022-11-19T20:02:45.421Z,17.77
2022-11-19T20:05:11.760Z,17.74
2022-11-19T20:07:38.127Z,17.74
2022-11-19T20:10:04.459Z,17.86
2022-11-19T20:12:30.785Z,17.95
2022-11-19T20:14:57.187Z,18.01
2022-11-19T20:17:23.506Z,17.96
2022-11-19T20:19:49.897Z,17.85
2022-11-19T20:22:16.236Z,17.78
2022-11-19T20:24:42.597Z,17.77
2022-11-19T20:27:08.926Z,17.74
2022-11-19T20:29:35.277Z,17.78
2022-11-19T20:32:01.658Z,17.77
2022-11-19T20:34:27.999Z,17.67
2022-11-19T20:36:54.325Z,17.69
2022-11-19T20:39:21.005Z,17.71
2022-11-19T20:41:47.085Z,17.74
2022-11-19T20:44:13.450Z,17.82
2022-11-19T20:46:39.768Z,17.70
2022-11-19T20:49:06.110Z,17.63
2022-11-19T20:51:32.469Z,17.56
2022-11-19T20:53:58.861Z,17.58
2022-11-19T20:56:25.209Z,17.61
2022-11-19T20:58:51.570Z,17.54
2022-11-19T21:01:17.916Z,17.51
2022-11-19T21:03:44.277Z,17.48
2022-11-19T21:06:10.594Z,17.30
2022-11-19T21:08:37.186Z,17.29
2022-11-19T21:11:03.334Z,17.25
2022-11-19T21:13:29.709Z,17.14
2022-11-19T21:15:56.024Z,17.10
2022-11-19T21:18:24.384Z,17.12
2022-11-19T21:20:48.692Z,17.12
2022-11-19T21:23:15.042Z,17.10
2022-11-19T21:25:41.410Z,17.07
2022-11-19T21:28:07.801Z,17.06
2022-11-19T21:30:34.197Z,17.10
2022-11-19T21:33:00.543Z,17.11
2022-11-19T21:35:26.867Z,16.99
2022-11-19T21:37:53.256Z,17.04
2022-11-19T21:40:19.584Z,17.05
2022-11-19T21:42:45.985Z,16.93
2022-11-19T21:45:12.336Z,16.91
2022-11-19T21:47:38.757Z,16.98
2022-11-19T21:50:05.118Z,16.97
2022-11-19T21:52:31.441Z,16.95
2022-11-19T21:54:57.773Z,17.19
2022-11-19T21:57:24.124Z,17.33
2022-11-19T21:59:50.481Z,17.29
2022-11-19T22:02:16.838Z,17.22
2022-11-19T22:04:43.199Z,17.28
2022-11-19T22:07:09.632Z,17.33
2022-11-19T22:09:35.943Z,17.27
2022-11-19T22:12:02.337Z,17.33
2022-11-19T22:14:28.660Z,17.30
2022-11-19T22:16:55.009Z,17.24
2022-11-19T22:19:21.417Z,17.23
2022-11-19T22:21:47.743Z,17.03
2022-11-19T22:24:14.099Z,17.08
2022-11-19T22:26:40.482Z,17.13
2022-11-19T22:29:06.866Z,17.17
2022-11-19T22:31:33.251Z,17.35
2022-11-19T22:33:59.572Z,17.37
2022-11-19T22:36:25.960Z,17.41
2022-11-19T22:38:52.378Z,17.23
2022-11-19T22:41:18.696Z,17.42
2022-11-19T22:43:45.025Z,17.65
2022-11-19T22:46:11.382Z,17.74
2022-11-19T22:48:37.703Z,17.75
2022-11-19T22:51:04.102Z,17.82
2022-11-19T22:53:30.492Z,17.51
2022-11-19T22:55:56.869Z,17.64
2022-11-19T22:58:23.189Z,18.09
2022-11-19T23:00:49.631Z,18.42
2022-11-19T23:03:15.942Z,18.46
2022-11-19T23:05:42.291Z,18.09
2022-11-19T23:08:08.613Z,18.25
2022-11-19T23:10:35.018Z,18.67
2022-11-19T23:13:01.333Z,18.55
2022-11-19T23:15:27.685Z,18.42
2022-11-19T23:17:54.051Z,18.19
2022-11-19T23:20:20.468Z,18.07
2022-11-19T23:22:46.789Z,18.30
2022-11-19T23:25:13.172Z,18.90
2022-11-19T23:27:39.501Z,19.08
2022-11-19T23:30:05.888Z,19.36
2022-11-19T23:32:32.261Z,18.84
2022-11-19T23:34:58.681Z,18.69
2022-11-19T23:37:24.993Z,18.65
2022-11-19T23:39:51.380Z,18.45
2022-11-19T23:42:17.747Z,18.41
2022-11-19T23:44:44.137Z,18.44
2022-11-19T23:47:10.499Z,18.33
2022-11-19T23:49:36.894Z,18.35
2022-11-19T23:52:03.251Z,18.37
2022-11-19T23:54:29.665Z,18.44
2022-11-19T23:56:56.033Z,18.50
2022-11-19T23:59:25.589Z,18.58
